Time;durP1;ratioP1;P1;durP2;ratioP2;P2;SDS_P1;SDS_P2;PMS_P1;PMS_P2;Temp;Humidity;BMP_temperature;BMP_pressure;BME280_temperature;BME280_humidity;BME280_pressure;Samples;Min_cycle;Max_cycle;Signal;HPM_P1;HPM_P2
2023/02/23 00:02:29;;;;;;;48.92;24.38;;;;;;;8.00;74.71;100087.63;10159662;29;20510;-80
2023/02/23 00:07:35;;;;;;;38.13;22.52;;;;;;;8.11;74.41;100090.34;10158491;29;20163;-79
2023/02/23 00:12:38;;;;;;;41.22;24.83;;;;;;;8.26;74.25;100084.84;10157957;29;20469;-78
2023/02/23 00:17:41;;;;;;;40.08;24.55;;;;;;;8.30;74.27;100089.81;10163635;29;20075;-79
2023/02/23 00:22:45;;;;;;;40.20;24.00;;;;;;;8.33;74.24;100092.25;10197250;29;20032;-76
2023/02/23 00:27:49;;;;;;;36.78;23.77;;;;;;;8.42;73.80;100092.53;10207951;28;20048;-75
2023/02/23 00:32:52;;;;;;;37.90;24.55;;;;;;;8.43;73.64;100075.50;10208252;29;20047;-76
2023/02/23 00:37:56;;;;;;;42.90;25.02;;;;;;;8.43;73.49;100078.19;10215181;29;20047;-75
2023/02/23 00:42:59;;;;;;;40.42;26.80;;;;;;;8.35;73.70;100066.22;10213329;28;20043;-75
2023/02/23 00:48:09;;;;;;;43.95;27.20;;;;;;;8.01;74.99;100075.09;10208367;29;20087;-76
2023/02/23 00:53:15;;;;;;;40.05;25.08;;;;;;;8.18;74.56;100080.06;10187933;29;20076;-75
2023/02/23 00:58:18;;;;;;;42.95;26.33;;;;;;;8.21;74.76;100085.19;10198640;29;20052;-76
2023/02/23 01:03:21;;;;;;;43.40;28.35;;;;;;;8.36;74.58;100083.13;10206752;29;20036;-76
2023/02/23 01:08:26;;;;;;;51.35;29.23;;;;;;;8.48;74.42;100095.63;10214172;28;20056;-76
2023/02/23 01:13:29;;;;;;;45.10;27.38;;;;;;;8.52;74.09;100085.53;10205972;28;20099;-78
2023/02/23 01:18:33;;;;;;;43.55;27.50;;;;;;;8.56;73.93;100082.50;10203478;28;20043;-77
2023/02/23 01:23:37;;;;;;;48.67;29.15;;;;;;;8.57;74.26;100081.53;10212960;28;20036;-76
2023/02/23 01:28:41;;;;;;;48.75;30.52;;;;;;;8.55;74.05;100080.78;10203708;29;20047;-76
2023/02/23 01:33:44;;;;;;;49.05;30.25;;;;;;;8.39;74.27;100088.25;10215806;28;20040;-76
2023/02/23 01:38:49;;;;;;;49.33;30.08;;;;;;;8.39;75.00;100091.81;10205880;28;20064;-76
2023/02/23 01:43:56;;;;;;;54.38;32.28;;;;;;;8.34;75.08;100095.81;10205065;29;20033;-74
2023/02/23 01:49:00;;;;;;;58.53;35.53;;;;;;;8.25;75.57;100093.81;10204603;29;20032;-74
2023/02/23 01:54:09;;;;;;;54.75;34.90;;;;;;;8.21;76.03;100087.84;10204900;28;20037;-76
2023/02/23 01:59:15;;;;;;;57.42;36.08;;;;;;;8.16;76.58;100090.88;10206280;28;20039;-77
2023/02/23 02:04:19;;;;;;;63.33;38.78;;;;;;;8.24;77.06;100092.13;10213373;28;20091;-76
2023/02/23 02:09:27;;;;;;;72.38;39.78;;;;;;;8.19;77.10;100095.13;10199426;28;20076;-78
2023/02/23 02:14:31;;;;;;;68.78;38.72;;;;;;;8.08;77.40;100089.75;10185089;29;20132;-78
2023/02/23 02:20:25;;;;;;;66.00;38.97;;;;;;;8.12;77.95;100099.25;10215021;28;20036;-76
2023/02/23 02:25:43;;;;;;;74.00;41.83;;;;;;;8.23;77.55;100087.72;10197274;28;20335;-79
2023/02/23 02:31:36;;;;;;;65.93;39.92;;;;;;;8.04;77.97;100081.09;10162367;29;20064;-80
2023/02/23 02:37:18;;;;;;;74.47;41.25;;;;;;;8.10;77.94;100085.13;10145026;29;20075;-77
2023/02/23 02:42:32;;;;;;;65.72;38.22;;;;;;;7.99;77.90;100083.25;10177285;29;20590;-79
2023/02/23 02:47:39;;;;;;;77.35;45.17;;;;;;;8.04;78.18;100080.25;10162111;29;20037;-79
2023/02/23 02:52:53;;;;;;;87.82;46.03;;;;;;;8.06;78.12;100078.28;10168750;29;20052;-80
2023/02/23 02:58:01;;;;;;;87.40;47.08;;;;;;;8.10;78.27;100074.44;10161370;29;20041;-79
2023/02/23 04:18:48;;;;;;;103.78;54.90;;;;;;;7.80;83.54;100085.59;10167490;29;20037;-80
2023/02/23 04:23:51;;;;;;;103.07;56.17;;;;;;;7.80;83.70;100086.47;10167316;29;20115;-80
2023/02/23 04:28:55;;;;;;;107.90;57.88;;;;;;;7.77;84.29;100102.72;10165275;29;20451;-77
2023/02/23 04:33:57;;;;;;;118.35;59.92;;;;;;;7.74;84.73;100089.59;10162240;29;20536;-83
2023/02/23 04:39:00;;;;;;;124.53;61.03;;;;;;;7.80;85.37;100088.28;10162338;29;20489;-80
2023/02/23 04:44:05;;;;;;;123.85;61.80;;;;;;;7.73;85.34;100088.75;10170089;29;20045;-84
2023/02/23 04:49:07;;;;;;;119.97;64.40;;;;;;;7.65;85.77;100083.09;10186961;29;20095;-83
2023/02/23 04:54:10;;;;;;;133.95;66.50;;;;;;;7.62;86.20;100072.63;10165291;29;20052;-81
2023/02/23 04:59:15;;;;;;;119.57;64.47;;;;;;;7.65;86.64;100087.56;10153721;29;20607;-80
2023/02/23 05:04:17;;;;;;;142.52;69.00;;;;;;;7.55;86.86;100083.88;10150901;29;20051;-82
2023/02/23 05:09:20;;;;;;;143.10;66.55;;;;;;;7.56;86.91;100083.75;10155044;29;20163;-85
2023/02/23 05:14:25;;;;;;;144.05;69.13;;;;;;;7.56;87.38;100075.75;10155665;29;20508;-81
2023/02/23 05:19:28;;;;;;;140.00;70.18;;;;;;;7.56;87.45;100081.09;10151506;29;20487;-83
2023/02/23 05:24:31;;;;;;;166.70;77.22;;;;;;;7.68;88.00;100074.84;10153018;29;20071;-81
2023/02/23 05:29:36;;;;;;;181.48;83.47;;;;;;;7.77;88.28;100078.66;10168008;29;20068;-83
2023/02/23 05:34:39;;;;;;;166.68;77.50;;;;;;;7.76;87.90;100076.09;10163198;29;20398;-83
2023/02/23 05:39:42;;;;;;;158.60;74.95;;;;;;;7.73;87.68;100087.88;10138920;29;20514;-81
2023/02/23 05:44:46;;;;;;;150.68;72.40;;;;;;;7.56;87.62;100082.91;10140683;29;20055;-80
2023/02/23 05:49:49;;;;;;;139.35;67.60;;;;;;;7.49;87.94;100085.19;10141196;29;20087;-83
2023/02/23 05:54:52;;;;;;;143.45;70.13;;;;;;;7.43;88.15;100085.63;10143842;29;20060;-81
2023/02/23 05:59:56;;;;;;;147.25;69.30;;;;;;;7.46;88.42;100096.97;10157560;29;20043;-81
2023/02/23 06:04:59;;;;;;;150.18;71.80;;;;;;;7.49;88.44;100091.38;10163674;29;20079;-83
2023/02/23 06:10:04;;;;;;;161.32;75.03;;;;;;;7.54;88.66;100100.88;10167532;29;20114;-82
2023/02/23 06:15:34;;;;;;;159.68;73.55;;;;;;;7.56;88.84;100093.59;10160671;29;20045;-81
2023/02/23 06:20:38;;;;;;;159.70;75.88;;;;;;;7.57;88.46;100103.31;10162444;29;20088;-82
2023/02/23 06:25:42;;;;;;;172.23;77.00;;;;;;;7.60;88.65;100112.00;10184474;29;20032;-78
2023/02/23 06:30:47;;;;;;;170.05;77.13;;;;;;;7.62;88.90;100118.06;10208196;28;20056;-79
2023/02/23 06:35:50;;;;;;;178.30;78.00;;;;;;;7.64;88.74;100116.13;10203661;28;20048;-78
2023/02/23 06:40:53;;;;;;;168.95;76.95;;;;;;;7.62;88.88;100126.06;10165703;29;20055;-82
2023/02/23 06:45:57;;;;;;;170.48;77.78;;;;;;;7.68;88.77;100116.78;10166776;29;20031;-80
2023/02/23 06:51:00;;;;;;;180.77;80.93;;;;;;;7.69;89.05;100135.38;10171402;28;20052;-82
2023/02/23 06:56:04;;;;;;;166.85;78.50;;;;;;;7.70;89.03;100136.22;10155141;29;20048;-82
2023/02/23 07:01:08;;;;;;;172.27;77.80;;;;;;;7.70;89.34;100129.03;10162612;29;20075;-80
2023/02/23 07:06:11;;;;;;;162.50;76.63;;;;;;;7.78;89.39;100143.69;10152397;29;20134;-82
2023/02/23 07:11:17;;;;;;;161.45;75.72;;;;;;;7.77;89.54;100144.66;10150860;29;20068;-81
2023/02/23 07:16:23;;;;;;;167.15;74.80;;;;;;;7.82;89.79;100148.72;10173428;29;20096;-82
2023/02/23 07:21:25;;;;;;;143.48;58.58;;;;;;;7.91;90.01;100155.19;10169439;29;20416;-82
2023/02/23 07:26:28;;;;;;;136.13;63.67;;;;;;;7.99;89.39;100152.81;10157320;29;20043;-82
2023/02/23 07:31:33;;;;;;;107.47;56.08;;;;;;;8.14;89.11;100161.50;10156540;29;20161;-81
2023/02/23 07:36:36;;;;;;;107.05;57.38;;;;;;;8.08;89.52;100156.63;10155220;29;20516;-81
2023/02/23 07:41:39;;;;;;;98.00;51.40;;;;;;;8.18;89.74;100165.69;10162177;29;20044;-83
2023/02/23 07:46:53;;;;;;;103.57;56.47;;;;;;;8.18;88.89;100169.19;10156549;29;20099;-83
2023/02/23 07:51:56;;;;;;;104.50;55.47;;;;;;;8.07;88.89;100166.47;10169366;29;20052;-83
2023/02/23 07:57:36;;;;;;;101.40;54.55;;;;;;;8.12;89.62;100172.34;11203679;23;20104;-82
2023/02/23 08:02:41;;;;;;;107.45;57.67;;;;;;;8.04;88.67;100179.22;10171719;29;20046;-82
2023/02/23 08:07:44;;;;;;;112.00;58.60;;;;;;;8.11;89.10;100178.63;10187545;29;20048;-81
2023/02/23 08:12:46;;;;;;;131.80;64.20;;;;;;;8.17;89.41;100175.53;10212425;23;20048;-80
2023/02/23 08:17:51;;;;;;;137.93;68.55;;;;;;;8.23;89.95;100173.34;10172568;29;20063;-78
2023/02/23 08:22:54;;;;;;;141.65;69.82;;;;;;;8.13;89.19;100182.06;10173147;29;20418;-78
2023/02/23 08:28:03;;;;;;;144.05;72.60;;;;;;;8.15;89.64;100190.84;10156650;29;20640;-79
2023/02/23 08:33:07;;;;;;;136.25;72.07;;;;;;;8.12;89.32;100185.72;10140492;29;20063;-78
2023/02/23 08:38:10;;;;;;;148.05;73.10;;;;;;;8.07;89.35;100192.38;10133208;29;20047;-78
2023/02/23 08:43:13;;;;;;;148.07;72.22;;;;;;;8.21;89.20;100199.38;10136996;29;20082;-78
2023/02/23 08:48:17;;;;;;;150.77;74.80;;;;;;;8.17;89.15;100196.06;10139248;29;20055;-77
2023/02/23 08:53:21;;;;;;;159.45;74.47;;;;;;;8.02;89.35;100203.41;10147017;29;20052;-78
2023/02/23 08:58:24;;;;;;;162.82;76.63;;;;;;;8.09;89.37;100199.31;10143524;29;20191;-76
2023/02/23 09:03:30;;;;;;;163.85;75.70;;;;;;;8.29;89.85;100205.03;10131152;29;20609;-80
2023/02/23 09:08:32;;;;;;;162.25;76.40;;;;;;;8.36;89.94;100211.59;10138572;29;20547;-80
2023/02/23 09:13:35;;;;;;;149.05;73.93;;;;;;;8.44;89.94;100208.38;10146427;29;20181;-80
2023/02/23 09:18:41;;;;;;;144.13;69.85;;;;;;;8.41;89.62;100206.75;10151693;29;20601;-80
2023/02/23 09:23:44;;;;;;;138.40;67.07;;;;;;;8.27;89.01;100213.16;10149058;29;20060;-80
2023/02/23 09:28:47;;;;;;;143.88;66.95;;;;;;;8.38;89.74;100215.03;10140992;29;20087;-80
2023/02/23 09:33:53;;;;;;;143.00;67.72;;;;;;;8.42;89.76;100227.22;10141401;29;20048;-80
2023/02/23 09:38:56;;;;;;;127.95;66.28;;;;;;;8.41;89.57;100225.50;10136838;29;20066;-81
2023/02/23 09:44:02;;;;;;;128.60;65.70;;;;;;;8.42;89.99;100231.72;10140624;29;20055;-81
2023/02/23 09:49:15;;;;;;;131.10;65.93;;;;;;;8.57;90.34;100228.78;10143698;29;20056;-81
2023/02/23 09:54:18;;;;;;;;;;;;;;;8.57;89.64;100222.56;10152550;29;20051;-81
2023/02/23 09:59:23;;;;;;;117.38;57.47;;;;;;;8.48;89.36;100236.66;10176891;29;19934;-80
2023/02/23 10:04:31;;;;;;;108.57;55.22;;;;;;;8.29;89.26;100240.66;10173261;29;20083;-80
2023/02/23 10:09:51;;;;;;;102.85;51.63;;;;;;;8.34;89.56;100238.50;10134151;29;20060;-81
2023/02/23 10:15:15;;;;;;;93.90;49.58;;;;;;;8.17;88.92;100250.44;10119061;29;20044;-80
2023/02/23 10:20:27;;;;;;;91.90;47.75;;;;;;;8.19;89.34;100247.66;10156520;29;20051;-80
2023/02/23 10:25:35;;;;;;;93.93;46.50;;;;;;;8.23;89.36;100257.19;10175419;29;20506;-80
2023/02/23 10:30:41;;;;;;;89.72;45.97;;;;;;;8.28;89.35;100251.47;10125604;29;20048;-80
2023/02/23 10:35:45;;;;;;;91.85;46.13;;;;;;;8.25;89.54;100252.53;10109908;29;20517;-80
2023/02/23 10:40:53;;;;;;;98.40;45.70;;;;;;;8.28;89.40;100252.34;10161467;29;20062;-80
2023/02/23 10:45:56;;;;;;;104.00;45.10;;;;;;;8.31;89.40;100256.59;10164039;29;20074;-81
2023/02/23 10:51:03;;;;;;;104.28;43.58;;;;;;;8.35;89.60;100255.41;10152395;29;20235;-82
2023/02/23 10:56:09;;;;;;;108.80;47.65;;;;;;;8.49;89.95;100257.94;10150288;29;20091;-80
2023/02/23 11:01:13;;;;;;;114.65;46.10;;;;;;;8.65;89.99;100254.97;10180790;29;21223;-81
2023/02/23 11:06:31;;;;;;;107.18;43.75;;;;;;;8.65;89.73;100260.34;10178210;29;20423;-80
2023/02/23 11:11:34;;;;;;;105.22;43.42;;;;;;;8.62;89.51;100247.19;10118435;29;20416;-80
2023/02/23 11:16:39;;;;;;;107.50;43.53;;;;;;;8.57;88.89;100249.34;10097737;29;20052;-80
2023/02/23 11:21:51;;;;;;;112.22;43.13;;;;;;;8.56;89.86;100245.81;10097934;29;20051;-80
2023/02/23 11:26:59;;;;;;;106.30;43.10;;;;;;;8.68;89.88;100244.03;10097865;29;20052;-80
2023/02/23 11:32:08;;;;;;;124.38;51.30;;;;;;;8.66;89.94;100245.13;10095407;29;20112;-80
2023/02/23 11:37:22;;;;;;;106.97;44.53;;;;;;;8.30;88.97;100241.50;10095576;29;20447;-81
2023/02/23 11:42:26;;;;;;;;;;;;;;;8.50;89.60;100238.25;10096847;29;20135;-80
2023/02/23 11:47:30;;;;;;;98.82;42.15;;;;;;;8.03;88.61;100249.72;10164028;29;19933;-80
2023/02/23 11:52:35;;;;;;;100.00;42.40;;;;;;;8.38;89.40;100237.28;10169690;29;20056;-80
2023/02/23 11:57:38;;;;;;;112.70;44.03;;;;;;;8.50;88.44;100230.22;10166417;29;20074;-80
2023/02/23 12:02:50;;;;;;;100.65;43.65;;;;;;;8.05;88.07;100229.09;10138544;29;20083;-81
2023/02/23 12:08:01;;;;;;;104.43;41.35;;;;;;;8.05;87.40;100226.41;10120086;29;20175;-80
2023/02/23 12:13:16;;;;;;;109.18;42.38;;;;;;;8.15;88.26;100220.28;10167176;29;21730;-80
2023/02/23 12:18:36;;;;;;;111.25;42.35;;;;;;;8.38;88.26;100228.41;10155235;29;20055;-80
2023/02/23 12:23:45;;;;;;;111.30;42.35;;;;;;;8.36;87.99;100222.31;10125456;29;20487;-81
2023/02/23 12:28:57;;;;;;;115.68;45.67;;;;;;;8.31;87.83;100220.00;10146551;29;20052;-81
2023/02/23 12:34:04;;;;;;;114.00;43.70;;;;;;;8.07;87.89;100213.78;10145736;29;20048;-81
2023/02/23 12:39:17;;;;;;;110.55;41.85;;;;;;;7.84;88.35;100218.94;10156030;29;20174;-80
2023/02/23 12:44:32;;;;;;;120.53;45.67;;;;;;;8.11;88.33;100221.44;10137376;29;20054;-80
2023/02/23 12:49:41;;;;;;;109.18;44.63;;;;;;;8.12;88.12;100217.81;10138061;29;20066;-82
2023/02/23 12:54:46;;;;;;;116.30;45.85;;;;;;;7.81;88.44;100226.34;10118696;29;20052;-81
2023/02/23 13:00:19;;;;;;;129.10;48.25;;;;;;;8.05;87.79;100229.09;10153584;29;20118;-83
2023/02/23 13:05:27;;;;;;;118.68;47.42;;;;;;;8.26;88.21;100219.47;10133642;29;20487;-83
2023/02/23 13:10:40;;;;;;;120.60;46.83;;;;;;;7.82;88.12;100226.25;10148877;29;20162;-84
2023/02/23 13:15:59;;;;;;;123.63;47.33;;;;;;;7.88;88.20;100222.28;10138559;29;20047;-84
2023/02/23 13:21:11;;;;;;;124.85;47.05;;;;;;;7.93;87.67;100222.81;10162405;29;20071;-85
2023/02/23 13:26:27;;;;;;;124.85;47.15;;;;;;;7.87;88.52;100221.44;10137781;29;20055;-85
2023/02/23 13:31:34;;;;;;;114.45;47.25;;;;;;;7.70;88.78;100219.09;10144092;29;20083;-82
2023/02/23 13:36:39;;;;;;;131.32;47.67;;;;;;;7.91;88.50;100219.38;10193516;29;20507;-83
2023/02/23 13:41:53;;;;;;;124.75;48.80;;;;;;;7.95;88.59;100218.19;10177334;29;20060;-82
2023/02/23 13:47:06;;;;;;;126.72;47.72;;;;;;;8.16;89.11;100213.94;10145856;29;20052;-82
2023/02/23 13:52:22;;;;;;;105.90;40.33;;;;;;;7.82;89.08;100223.59;10134413;29;20083;-83
2023/02/23 13:57:28;;;;;;;97.32;35.58;;;;;;;7.68;88.63;100227.25;10167960;29;20048;-82
2023/02/23 14:02:35;;;;;;;91.78;34.00;;;;;;;7.49;89.20;100230.38;10157639;29;20103;-83
2023/02/23 14:07:41;;;;;;;81.60;29.77;;;;;;;7.57;88.83;100232.50;10120208;29;20064;-84
2023/02/23 14:13:06;;;;;;;77.72;31.20;;;;;;;7.75;88.32;100238.34;10130244;29;20629;-82
2023/02/23 14:18:33;;;;;;;76.40;29.30;;;;;;;7.79;88.21;100239.84;10108269;29;20056;-83
2023/02/23 14:23:50;;;;;;;71.93;28.77;;;;;;;7.52;88.20;100245.34;10110731;29;20048;-83
2023/02/23 14:29:24;;;;;;;69.95;28.17;;;;;;;7.40;88.54;100240.84;10133441;29;20048;-83
2023/02/23 14:34:46;;;;;;;80.93;30.08;;;;;;;7.46;88.04;100246.63;10135844;29;20095;-83
2023/02/23 14:39:50;;;;;;;78.80;29.63;;;;;;;7.27;89.26;100246.22;10126225;29;20060;-82
2023/02/23 14:44:56;;;;;;;80.95;30.83;;;;;;;7.49;88.97;100245.56;10114907;29;21575;-82
2023/02/23 14:50:01;;;;;;;73.82;28.85;;;;;;;7.69;88.59;100250.34;10180915;29;20086;-82
2023/02/23 14:55:19;;;;;;;77.25;30.10;;;;;;;7.70;88.83;100249.34;10131259;29;20135;-83
2023/02/23 15:00:26;;;;;;;77.13;29.50;;;;;;;7.50;88.71;100258.78;10105867;29;20056;-83
2023/02/23 15:05:31;;;;;;;70.00;30.00;;;;;;;7.30;88.79;100253.16;10143840;29;20052;-82
2023/02/23 15:10:37;;;;;;;75.22;26.52;;;;;;;7.42;88.33;100257.63;10123749;29;21229;-82
2023/02/23 15:15:45;;;;;;;64.70;24.30;;;;;;;7.51;88.49;100256.97;10196003;29;20859;-82
2023/02/23 15:20:49;;;;;;;59.95;23.15;;;;;;;7.27;88.38;100257.75;10157652;29;20052;-83
2023/02/23 15:25:51;;;;;;;59.33;23.23;;;;;;;7.30;88.14;100267.38;10141252;29;20063;-83
2023/02/23 15:30:59;;;;;;;73.57;23.27;;;;;;;7.35;88.49;100269.69;10160980;29;21234;-83
2023/02/23 15:36:08;;;;;;;73.68;26.13;;;;;;;7.43;88.83;100264.69;10186085;29;20039;-83
2023/02/23 15:41:18;;;;;;;73.53;23.92;;;;;;;7.44;88.89;100269.06;10181987;29;20088;-83
2023/02/23 15:46:26;;;;;;;67.43;23.00;;;;;;;7.44;88.81;100269.94;10163780;29;20056;-83
2023/02/23 15:51:34;;;;;;;63.13;22.55;;;;;;;7.33;88.71;100268.97;10134612;29;20083;-81
2023/02/23 15:56:37;;;;;;;62.83;22.30;;;;;;;7.02;89.21;100273.72;10141939;29;20056;-81
2023/02/23 16:01:45;;;;;;;66.38;22.60;;;;;;;7.06;89.17;100260.06;10121965;29;20127;-80
2023/02/23 16:06:53;;;;;;;63.13;23.48;;;;;;;7.25;89.08;100266.81;10122944;29;20604;-82
2023/02/23 16:12:01;;;;;;;61.22;21.90;;;;;;;7.26;88.64;100252.50;10110522;29;20075;-82
2023/02/23 16:17:05;;;;;;;58.40;23.35;;;;;;;7.25;88.98;100248.97;10136932;29;20051;-82
2023/02/23 16:22:21;;;;;;;69.78;25.98;;;;;;;7.25;88.90;100246.31;10133181;29;20053;-81
2023/02/23 16:27:26;;;;;;;71.43;24.83;;;;;;;7.26;88.96;100244.47;10096118;29;20048;-81
2023/02/23 16:32:37;;;;;;;63.25;22.48;;;;;;;6.92;88.94;100260.16;10122254;29;20055;-81
2023/02/23 16:37:57;;;;;;;64.38;20.67;;;;;;;6.83;89.12;100258.94;10136444;29;20094;-81
2023/02/23 16:42:59;;;;;;;61.75;20.55;;;;;;;6.86;89.09;100263.22;10124188;29;21312;-81
2023/02/23 16:48:10;;;;;;;63.22;22.23;;;;;;;6.48;89.40;100253.28;10111359;29;20061;-81
2023/02/23 16:53:14;;;;;;;66.78;21.88;;;;;;;6.81;89.02;100260.84;10095946;29;20716;-80
2023/02/23 16:58:20;;;;;;;63.42;21.35;;;;;;;6.67;89.21;100265.41;10152360;29;20460;-80
2023/02/23 17:03:26;;;;;;;78.18;23.65;;;;;;;6.70;88.86;100260.72;10133376;29;20527;-80
2023/02/23 17:08:30;;;;;;;74.68;22.35;;;;;;;6.77;88.74;100267.34;10154529;29;20079;-80
2023/02/23 17:13:34;;;;;;;63.60;21.15;;;;;;;6.79;88.85;100270.75;10159176;29;20067;-80
2023/02/23 17:18:38;;;;;;;71.95;21.90;;;;;;;6.41;89.83;100281.31;10144149;29;20111;-80
2023/02/23 17:23:49;;;;;;;60.28;20.60;;;;;;;6.51;89.05;100285.09;10151923;29;20111;-79
2023/02/23 17:28:52;;;;;;;67.65;20.27;;;;;;;6.77;88.99;100302.03;10151318;29;20054;-79
2023/02/23 17:33:57;;;;;;;66.72;20.58;;;;;;;6.83;88.54;100298.97;10121360;29;20048;-80
2023/02/23 17:39:00;;;;;;;85.07;23.92;;;;;;;6.60;88.61;100292.47;10164491;29;20051;-79
2023/02/23 17:44:04;;;;;;;76.95;23.08;;;;;;;6.39;88.40;100302.78;10145261;29;20099;-80
2023/02/23 17:49:08;;;;;;;96.30;24.40;;;;;;;6.49;88.80;100300.34;10144884;29;20063;-81
2023/02/23 17:54:11;;;;;;;93.38;24.50;;;;;;;6.64;88.76;100295.81;10157180;29;20479;-80
2023/02/23 17:59:14;;;;;;;81.47;24.70;;;;;;;6.66;88.81;100296.56;10148217;29;20436;-80
2023/02/23 18:04:18;;;;;;;93.53;26.20;;;;;;;6.45;88.36;100300.66;10127362;29;20044;-81
2023/02/23 18:09:21;;;;;;;103.80;27.90;;;;;;;6.53;88.74;100301.88;10093485;29;1123999;-80
2023/02/23 18:14:24;;;;;;;100.00;27.10;;;;;;;6.03;88.67;100299.78;10142447;29;20065;-81
2023/02/23 18:19:29;;;;;;;104.97;26.42;;;;;;;6.37;88.57;100293.16;10117146;29;20196;-80
2023/02/23 18:24:32;;;;;;;94.60;26.85;;;;;;;6.37;88.66;100301.16;10119302;29;20060;-80
2023/02/23 18:29:36;;;;;;;90.70;29.10;;;;;;;6.33;88.86;100297.81;10129937;29;20173;-81
2023/02/23 18:34:40;;;;;;;98.70;26.85;;;;;;;6.31;88.51;100302.41;10131667;29;20059;-80
2023/02/23 18:39:43;;;;;;;87.40;25.10;;;;;;;6.12;89.12;100299.22;10140735;29;20128;-80
2023/02/23 18:44:45;;;;;;;103.50;28.08;;;;;;;6.01;89.07;100297.22;10133073;29;20068;-81
2023/02/23 18:49:51;;;;;;;105.70;28.48;;;;;;;6.29;88.42;100308.78;10132434;29;20174;-81
2023/02/23 18:54:54;;;;;;;103.28;28.35;;;;;;;6.31;88.27;100312.22;10160452;29;20071;-81
2023/02/23 18:59:57;;;;;;;108.15;29.50;;;;;;;6.38;88.00;100314.38;10144361;29;20115;-80
2023/02/23 19:05:01;;;;;;;105.70;30.63;;;;;;;6.26;88.52;100314.34;10149840;29;20518;-81
2023/02/23 19:10:07;;;;;;;101.13;29.98;;;;;;;6.33;88.06;100308.47;10149839;29;20056;-80
2023/02/23 19:15:11;;;;;;;106.22;31.90;;;;;;;5.93;89.58;100307.50;10143445;29;20078;-80
2023/02/23 19:20:16;;;;;;;112.88;31.48;;;;;;;6.27;88.22;100300.03;10187431;29;20074;-80
2023/02/23 19:25:18;;;;;;;119.60;33.35;;;;;;;6.33;88.15;100300.47;10121725;29;20072;-81
2023/02/23 19:30:21;;;;;;;118.03;33.30;;;;;;;6.17;88.75;100295.28;10139052;29;20072;-82
2023/02/23 19:35:25;;;;;;;103.57;29.42;;;;;;;6.11;88.49;100297.47;10150152;29;20072;-82
2023/02/23 19:40:29;;;;;;;111.43;30.90;;;;;;;6.29;88.52;100296.31;10123567;29;20067;-81
2023/02/23 19:45:32;;;;;;;37.72;11.88;;;;;;;6.28;87.08;100317.72;10149351;29;20048;-81
2023/02/23 19:50:36;;;;;;;27.35;7.60;;;;;;;5.98;86.31;100320.53;10123445;29;20423;-82
2023/02/23 19:55:40;;;;;;;21.60;7.78;;;;;;;5.89;86.64;100325.50;10120397;29;20048;-82
2023/02/23 20:00:45;;;;;;;19.75;6.63;;;;;;;5.84;86.57;100329.41;10117433;29;20531;-81
2023/02/23 20:05:50;;;;;;;24.10;7.53;;;;;;;5.81;86.88;100334.94;10130465;29;20062;-81
2023/02/23 20:10:52;;;;;;;24.65;7.45;;;;;;;5.80;86.79;100347.41;10115738;29;20068;-82
2023/02/23 20:16:00;;;;;;;30.55;7.93;;;;;;;5.69;86.82;100352.53;10127839;29;20068;-81
2023/02/23 20:21:09;;;;;;;28.77;9.52;;;;;;;5.59;86.65;100346.91;10101338;29;20064;-81
2023/02/23 20:26:15;;;;;;;29.85;8.75;;;;;;;5.48;86.76;100352.88;10128288;29;20052;-82
2023/02/23 20:31:20;;;;;;;36.60;9.15;;;;;;;5.42;86.55;100357.72;10126037;29;20540;-80
2023/02/23 20:36:25;;;;;;;33.08;8.80;;;;;;;5.44;86.44;100363.84;10123763;29;20059;-80
2023/02/23 20:41:30;;;;;;;28.17;7.38;;;;;;;5.46;86.44;100360.13;10128256;29;20722;-81
2023/02/23 20:46:33;;;;;;;29.75;7.90;;;;;;;5.48;86.62;100362.69;10186474;29;20152;-83
2023/02/23 20:51:38;;;;;;;30.60;7.03;;;;;;;5.34;86.26;100354.66;10166134;29;20797;-81
2023/02/23 20:56:43;;;;;;;26.00;5.45;;;;;;;5.18;85.30;100368.03;10149959;29;20066;-83
2023/02/23 21:01:46;;;;;;;30.02;6.53;;;;;;;5.15;85.89;100363.72;10144203;29;20456;-81
2023/02/23 21:06:50;;;;;;;27.17;6.03;;;;;;;5.05;85.37;100358.09;10166973;29;20064;-81
2023/02/23 21:11:54;;;;;;;32.72;6.25;;;;;;;5.09;85.18;100357.94;10170617;29;20054;-81
2023/02/23 21:16:57;;;;;;;26.10;5.57;;;;;;;5.07;84.95;100355.34;10150966;29;20044;-79
2023/02/23 21:22:03;;;;;;;44.40;7.30;;;;;;;5.12;85.28;100352.41;10165784;29;20062;-81
2023/02/23 21:27:11;;;;;;;27.35;7.07;;;;;;;5.05;84.81;100347.47;10131856;29;20052;-80
2023/02/23 21:32:15;;;;;;;31.02;7.40;;;;;;;5.04;84.20;100353.72;10152388;29;20503;-81
2023/02/23 21:37:19;;;;;;;34.65;6.40;;;;;;;5.08;85.04;100343.75;10138935;29;20060;-80
2023/02/23 21:42:22;;;;;;;38.97;7.28;;;;;;;5.15;85.31;100333.59;10148797;29;20054;-79
2023/02/23 21:47:25;;;;;;;28.25;6.07;;;;;;;5.15;85.13;100338.91;10135901;29;20048;-82
2023/02/23 21:52:30;;;;;;;36.13;7.03;;;;;;;5.18;85.40;100328.09;10135022;29;20453;-80
2023/02/23 21:57:33;;;;;;;29.30;6.43;;;;;;;5.18;85.37;100322.75;10159391;29;20048;-79
2023/02/23 22:02:39;;;;;;;35.65;6.95;;;;;;;5.11;85.25;100319.63;10156923;29;20602;-81
2023/02/23 22:07:50;;;;;;;29.45;7.70;;;;;;;5.12;85.09;100321.31;10165243;29;20059;-81
2023/02/23 22:12:54;;;;;;;31.77;6.72;;;;;;;5.03;84.67;100321.88;10144101;29;20059;-80
2023/02/23 22:17:57;;;;;;;32.22;9.30;;;;;;;5.08;85.19;100326.94;10107987;29;20052;-78
2023/02/23 22:23:02;;;;;;;40.67;7.00;;;;;;;5.06;85.13;100324.34;10131080;29;20055;-79
2023/02/23 22:28:07;;;;;;;31.27;7.07;;;;;;;4.96;84.76;100321.31;10169561;29;20723;-82
2023/02/23 22:33:10;;;;;;;37.80;7.18;;;;;;;4.95;84.74;100326.75;10154808;29;20062;-80
2023/02/23 22:38:17;;;;;;;30.77;6.70;;;;;;;4.82;83.86;100316.81;10136946;29;20127;-80
2023/02/23 22:43:21;;;;;;;34.55;9.13;;;;;;;4.73;84.32;100305.84;10136352;29;21224;-81
2023/02/23 22:48:27;;;;;;;33.97;5.18;;;;;;;4.68;83.97;100299.94;10143803;23;20418;-80
2023/02/23 22:53:32;;;;;;;34.47;6.82;;;;;;;4.68;83.48;100299.94;10129395;29;20044;-80
2023/02/23 22:58:35;;;;;;;33.22;5.22;;;;;;;4.70;84.41;100292.72;10151745;29;20447;-81
2023/02/23 23:03:40;;;;;;;25.98;5.50;;;;;;;4.75;84.61;100288.00;10136731;29;20124;-81
2023/02/23 23:08:47;;;;;;;27.60;4.70;;;;;;;4.42;82.66;100280.16;10146829;29;20048;-81
2023/02/23 23:13:52;;;;;;;24.90;5.57;;;;;;;4.23;82.05;100283.00;10142798;29;20099;-80
2023/02/23 23:18:57;;;;;;;29.60;5.78;;;;;;;4.24;82.64;100279.41;10163083;29;20048;-81
2023/02/23 23:24:04;;;;;;;26.67;5.00;;;;;;;4.00;82.62;100286.94;10164021;29;20069;-80
2023/02/23 23:29:10;;;;;;;33.72;5.93;;;;;;;3.89;82.92;100283.06;10151620;29;20479;-81
2023/02/23 23:34:15;;;;;;;33.05;6.38;;;;;;;3.76;83.11;100270.53;10140641;29;20052;-81
2023/02/23 23:39:22;;;;;;;44.83;5.88;;;;;;;3.90;82.75;100278.63;10137703;29;20064;-81
2023/02/23 23:44:27;;;;;;;22.30;5.75;;;;;;;3.93;82.93;100270.47;10137709;29;20046;-81
2023/02/23 23:49:34;;;;;;;34.85;5.03;;;;;;;4.02;82.98;100274.41;10142619;29;20059;-80
2023/02/23 23:54:39;;;;;;;28.80;4.90;;;;;;;3.97;82.83;100269.34;10158968;29;20599;-80
2023/02/23 23:59:44;;;;;;;27.00;4.80;;;;;;;4.00;82.51;100255.88;10141175;29;20064;-81
